sensor_id;sensor_type;location;lat;lon;timestamp;pressure;altitude;pressure_sealevel;temperature;humidity
60228;BME280;46091;46.512;6.626;2023-05-20T00:00:26;96749.94;;;16.66;52.87
60228;BME280;46091;46.512;6.626;2023-05-20T00:02:30;96744.50;;;16.73;52.83
60228;BME280;46091;46.512;6.626;2023-05-20T00:04:33;96743.22;;;16.75;52.81
60228;BME280;46091;46.512;6.626;2023-05-20T00:06:36;96746.25;;;16.79;52.76
60228;BME280;46091;46.512;6.626;2023-05-20T00:08:39;96753.47;;;16.78;52.91
60228;BME280;46091;46.512;6.626;2023-05-20T00:10:42;96737.88;;;16.75;52.78
60228;BME280;46091;46.512;6.626;2023-05-20T00:12:45;96745.06;;;16.75;52.83
60228;BME280;46091;46.512;6.626;2023-05-20T00:14:48;96733.03;;;16.72;52.82
60228;BME280;46091;46.512;6.626;2023-05-20T00:16:51;96739.41;;;16.71;52.78
60228;BME280;46091;46.512;6.626;2023-05-20T00:18:55;96725.00;;;16.72;52.95
60228;BME280;46091;46.512;6.626;2023-05-20T00:20:58;96738.13;;;16.74;52.91
60228;BME280;46091;46.512;6.626;2023-05-20T00:23:01;96732.53;;;16.75;53.00
60228;BME280;46091;46.512;6.626;2023-05-20T00:25:05;96734.28;;;16.81;52.90
60228;BME280;46091;46.512;6.626;2023-05-20T00:27:08;96743.00;;;16.88;52.81
60228;BME280;46091;46.512;6.626;2023-05-20T00:29:10;96742.53;;;16.92;52.75
60228;BME280;46091;46.512;6.626;2023-05-20T00:31:13;96741.38;;;16.87;52.49
60228;BME280;46091;46.512;6.626;2023-05-20T00:33:17;96737.19;;;16.92;52.85
60228;BME280;46091;46.512;6.626;2023-05-20T00:35:22;96743.66;;;16.96;52.72
60228;BME280;46091;46.512;6.626;2023-05-20T00:37:25;96749.38;;;16.99;52.37
60228;BME280;46091;46.512;6.626;2023-05-20T00:39:28;96742.75;;;17.02;52.67
60228;BME280;46091;46.512;6.626;2023-05-20T00:41:31;96744.03;;;16.99;52.67
60228;BME280;46091;46.512;6.626;2023-05-20T00:43:34;96743.19;;;16.99;52.68
60228;BME280;46091;46.512;6.626;2023-05-20T00:45:37;96741.56;;;16.98;52.69
60228;BME280;46091;46.512;6.626;2023-05-20T00:47:41;96743.00;;;17.00;52.72
60228;BME280;46091;46.512;6.626;2023-05-20T00:49:45;96733.94;;;17.01;52.65
60228;BME280;46091;46.512;6.626;2023-05-20T00:51:52;96727.16;;;16.99;52.56
60228;BME280;46091;46.512;6.626;2023-05-20T00:53:55;96726.16;;;17.00;52.78
60228;BME280;46091;46.512;6.626;2023-05-20T00:56:00;96718.34;;;16.98;52.50
60228;BME280;46091;46.512;6.626;2023-05-20T00:58:03;96715.34;;;16.95;52.74
60228;BME280;46091;46.512;6.626;2023-05-20T01:00:07;96718.59;;;16.97;52.69
60228;BME280;46091;46.512;6.626;2023-05-20T01:02:10;96718.59;;;16.97;52.84
60228;BME280;46091;46.512;6.626;2023-05-20T01:04:14;96711.63;;;16.96;52.67
60228;BME280;46091;46.512;6.626;2023-05-20T01:06:17;96706.28;;;16.96;52.59
60228;BME280;46091;46.512;6.626;2023-05-20T01:08:21;96723.13;;;16.96;52.78
60228;BME280;46091;46.512;6.626;2023-05-20T01:10:27;96716.97;;;16.96;52.79
60228;BME280;46091;46.512;6.626;2023-05-20T01:12:36;96709.19;;;16.94;52.82
60228;BME280;46091;46.512;6.626;2023-05-20T01:14:43;96704.19;;;16.98;52.74
60228;BME280;46091;46.512;6.626;2023-05-20T01:16:49;96705.81;;;16.99;52.78
60228;BME280;46091;46.512;6.626;2023-05-20T01:18:55;96705.81;;;16.99;52.81
60228;BME280;46091;46.512;6.626;2023-05-20T01:21:01;96710.13;;;17.00;52.88
60228;BME280;46091;46.512;6.626;2023-05-20T01:23:05;96705.00;;;16.98;52.93
60228;BME280;46091;46.512;6.626;2023-05-20T01:25:08;96709.53;;;16.98;52.87
60228;BME280;46091;46.512;6.626;2023-05-20T01:27:13;96711.16;;;16.99;52.77
60228;BME280;46091;46.512;6.626;2023-05-20T01:29:18;96714.06;;;16.97;52.95
60228;BME280;46091;46.512;6.626;2023-05-20T01:31:23;96714.88;;;16.98;52.78
60228;BME280;46091;46.512;6.626;2023-05-20T01:33:28;96718.59;;;16.97;52.96
60228;BME280;46091;46.512;6.626;2023-05-20T01:35:32;96721.25;;;16.97;53.04
60228;BME280;46091;46.512;6.626;2023-05-20T01:37:38;96720.22;;;16.98;52.90
60228;BME280;46091;46.512;6.626;2023-05-20T01:39:44;96716.97;;;16.96;52.82
60228;BME280;46091;46.512;6.626;2023-05-20T01:41:48;96712.44;;;16.96;53.08
60228;BME280;46091;46.512;6.626;2023-05-20T01:43:52;96710.56;;;16.97;53.05
60228;BME280;46091;46.512;6.626;2023-05-20T01:45:55;96714.88;;;16.98;53.17
60228;BME280;46091;46.512;6.626;2023-05-20T01:47:58;96717.53;;;16.98;53.17
60228;BME280;46091;46.512;6.626;2023-05-20T01:50:02;96716.50;;;16.99;52.94
60228;BME280;46091;46.512;6.626;2023-05-20T01:52:05;96717.91;;;17.01;53.01
60228;BME280;46091;46.512;6.626;2023-05-20T01:54:08;96717.09;;;17.01;53.20
60228;BME280;46091;46.512;6.626;2023-05-20T01:56:12;96723.00;;;17.03;52.98
60228;BME280;46091;46.512;6.626;2023-05-20T01:58:15;96715.22;;;17.01;53.04
60228;BME280;46091;46.512;6.626;2023-05-20T02:00:18;96716.28;;;17.00;52.96
60228;BME280;46091;46.512;6.626;2023-05-20T02:02:22;96708.28;;;17.00;52.93
60228;BME280;46091;46.512;6.626;2023-05-20T02:04:25;96709.09;;;17.01;52.99
60228;BME280;46091;46.512;6.626;2023-05-20T02:06:27;96712.81;;;17.00;52.99
60228;BME280;46091;46.512;6.626;2023-05-20T02:08:30;96714.41;;;17.01;53.10
60228;BME280;46091;46.512;6.626;2023-05-20T02:10:33;96705.34;;;17.02;53.04
60228;BME280;46091;46.512;6.626;2023-05-20T02:12:38;96710.34;;;16.98;52.80
60228;BME280;46091;46.512;6.626;2023-05-20T02:14:41;96708.38;;;16.94;52.89
60228;BME280;46091;46.512;6.626;2023-05-20T02:16:45;96701.34;;;16.87;53.03
60228;BME280;46091;46.512;6.626;2023-05-20T02:18:48;96699.09;;;16.84;52.98
60228;BME280;46091;46.512;6.626;2023-05-20T02:20:53;96690.06;;;16.85;53.00
60228;BME280;46091;46.512;6.626;2023-05-20T02:22:56;96688.44;;;16.84;52.94
60228;BME280;46091;46.512;6.626;2023-05-20T02:24:59;96695.38;;;16.85;53.09
60228;BME280;46091;46.512;6.626;2023-05-20T02:27:02;96685.53;;;16.86;52.88
60228;BME280;46091;46.512;6.626;2023-05-20T02:29:06;96678.31;;;16.86;52.98
60228;BME280;46091;46.512;6.626;2023-05-20T02:31:09;96679.38;;;16.85;52.92
60228;BME280;46091;46.512;6.626;2023-05-20T02:33:12;96679.97;;;16.87;53.06
60228;BME280;46091;46.512;6.626;2023-05-20T02:35:15;96681.59;;;16.88;52.96
60228;BME280;46091;46.512;6.626;2023-05-20T02:37:18;96680.53;;;16.90;52.85
60228;BME280;46091;46.512;6.626;2023-05-20T02:39:21;96686.69;;;16.90;52.62
60228;BME280;46091;46.512;6.626;2023-05-20T02:41:24;96687.50;;;16.91;52.98
60228;BME280;46091;46.512;6.626;2023-05-20T02:43:27;96685.66;;;16.91;52.84
60228;BME280;46091;46.512;6.626;2023-05-20T02:45:31;96688.06;;;16.93;52.75
60228;BME280;46091;46.512;6.626;2023-05-20T02:47:35;96688.88;;;16.93;52.87
60228;BME280;46091;46.512;6.626;2023-05-20T02:49:38;96696.91;;;16.93;52.85
60228;BME280;46091;46.512;6.626;2023-05-20T02:51:40;96692.13;;;16.95;52.74
60228;BME280;46091;46.512;6.626;2023-05-20T02:53:44;96699.56;;;16.93;52.81
60228;BME280;46091;46.512;6.626;2023-05-20T02:55:47;96690.75;;;16.93;52.89
60228;BME280;46091;46.512;6.626;2023-05-20T02:57:51;96690.97;;;16.91;52.86
60228;BME280;46091;46.512;6.626;2023-05-20T02:59:54;96696.91;;;16.93;52.76
60228;BME280;46091;46.512;6.626;2023-05-20T03:01:59;96690.97;;;16.91;52.85
60228;BME280;46091;46.512;6.626;2023-05-20T03:04:02;96686.44;;;16.92;52.85
60228;BME280;46091;46.512;6.626;2023-05-20T03:06:05;96692.38;;;16.94;53.00
60228;BME280;46091;46.512;6.626;2023-05-20T03:08:09;96686.69;;;16.90;53.13
60228;BME280;46091;46.512;6.626;2023-05-20T03:10:12;96679.50;;;16.91;53.01
60228;BME280;46091;46.512;6.626;2023-05-20T03:12:14;96680.53;;;16.90;52.91
60228;BME280;46091;46.512;6.626;2023-05-20T03:14:17;96675.88;;;16.85;53.10
60228;BME280;46091;46.512;6.626;2023-05-20T03:16:21;96675.31;;;16.83;53.01
60228;BME280;46091;46.512;6.626;2023-05-20T03:18:27;96671.28;;;16.80;53.04
60228;BME280;46091;46.512;6.626;2023-05-20T03:20:30;96670.22;;;16.81;53.18
60228;BME280;46091;46.512;6.626;2023-05-20T03:22:33;96676.38;;;16.82;53.07
60228;BME280;46091;46.512;6.626;2023-05-20T03:24:36;96672.88;;;16.81;53.14
60228;BME280;46091;46.512;6.626;2023-05-20T03:26:39;96677.91;;;16.78;53.06
60228;BME280;46091;46.512;6.626;2023-05-20T03:28:43;96675.69;;;16.75;53.18
60228;BME280;46091;46.512;6.626;2023-05-20T03:30:46;96682.63;;;16.76;53.10
60228;BME280;46091;46.512;6.626;2023-05-20T03:32:49;96673.81;;;16.75;53.16
60228;BME280;46091;46.512;6.626;2023-05-20T03:34:54;96679.16;;;16.75;53.22
60228;BME280;46091;46.512;6.626;2023-05-20T03:36:58;96667.66;;;16.75;53.13
60228;BME280;46091;46.512;6.626;2023-05-20T03:39:01;96676.97;;;16.72;53.20
60228;BME280;46091;46.512;6.626;2023-05-20T03:41:05;96676.38;;;16.70;53.12
60228;BME280;46091;46.512;6.626;2023-05-20T03:43:07;96680.09;;;16.69;53.36
60228;BME280;46091;46.512;6.626;2023-05-20T03:45:10;96681.72;;;16.70;53.29
60228;BME280;46091;46.512;6.626;2023-05-20T03:47:14;96682.53;;;16.71;53.31
60228;BME280;46091;46.512;6.626;2023-05-20T03:49:16;96678.00;;;16.71;53.32
60228;BME280;46091;46.512;6.626;2023-05-20T03:51:21;96676.38;;;16.70;53.47
60228;BME280;46091;46.512;6.626;2023-05-20T03:53:23;96675.59;;;16.70;53.29
60228;BME280;46091;46.512;6.626;2023-05-20T03:55:26;96673.97;;;16.69;53.32
60228;BME280;46091;46.512;6.626;2023-05-20T03:57:29;96671.28;;;16.69;53.43
60228;BME280;46091;46.512;6.626;2023-05-20T03:59:32;96663.50;;;16.67;53.64
60228;BME280;46091;46.512;6.626;2023-05-20T04:01:35;96664.53;;;16.66;53.46
60228;BME280;46091;46.512;6.626;2023-05-20T04:03:39;96669.06;;;16.66;53.52
60228;BME280;46091;46.512;6.626;2023-05-20T04:05:43;96670.09;;;16.65;53.41
60228;BME280;46091;46.512;6.626;2023-05-20T04:07:47;96666.84;;;16.63;53.50
60228;BME280;46091;46.512;6.626;2023-05-20T04:09:51;96670.31;;;16.63;53.53
60228;BME280;46091;46.512;6.626;2023-05-20T04:11:54;96670.31;;;16.63;53.62
60228;BME280;46091;46.512;6.626;2023-05-20T04:14:00;96665.47;;;16.60;53.64
60228;BME280;46091;46.512;6.626;2023-05-20T04:16:05;96671.84;;;16.59;53.63
60228;BME280;46091;46.512;6.626;2023-05-20T04:18:08;96667.56;;;16.58;53.76
60228;BME280;46091;46.512;6.626;2023-05-20T04:20:11;96666.19;;;16.55;53.66
60228;BME280;46091;46.512;6.626;2023-05-20T04:22:15;96668.03;;;16.55;53.84
60228;BME280;46091;46.512;6.626;2023-05-20T04:24:19;96672.31;;;16.56;53.66
60228;BME280;46091;46.512;6.626;2023-05-20T04:26:25;96675.81;;;16.56;53.67
60228;BME280;46091;46.512;6.626;2023-05-20T04:28:29;96678.22;;;16.58;53.77
60228;BME280;46091;46.512;6.626;2023-05-20T04:30:32;96675.31;;;16.59;53.65
60228;BME280;46091;46.512;6.626;2023-05-20T04:32:36;96683.34;;;16.59;53.81
60228;BME280;46091;46.512;6.626;2023-05-20T04:34:39;96672.91;;;16.58;53.80
60228;BME280;46091;46.512;6.626;2023-05-20T04:36:42;96672.09;;;16.57;53.88
60228;BME280;46091;46.512;6.626;2023-05-20T04:38:46;96671.28;;;16.57;53.78
60228;BME280;46091;46.512;6.626;2023-05-20T04:40:50;96674.50;;;16.59;53.87
60228;BME280;46091;46.512;6.626;2023-05-20T04:42:53;96673.13;;;16.56;53.87
60228;BME280;46091;46.512;6.626;2023-05-20T04:44:56;96679.03;;;16.58;53.80
60228;BME280;46091;46.512;6.626;2023-05-20T04:47:02;96674.50;;;16.59;54.17
60228;BME280;46091;46.512;6.626;2023-05-20T04:49:05;96684.94;;;16.60;54.00
60228;BME280;46091;46.512;6.626;2023-05-20T04:51:08;96677.19;;;16.59;53.89
60228;BME280;46091;46.512;6.626;2023-05-20T04:53:11;96676.13;;;16.60;54.01
60228;BME280;46091;46.512;6.626;2023-05-20T04:55:14;96679.84;;;16.59;54.09
60228;BME280;46091;46.512;6.626;2023-05-20T04:57:18;96681.47;;;16.60;53.98
60228;BME280;46091;46.512;6.626;2023-05-20T04:59:21;96678.81;;;16.60;54.07
60228;BME280;46091;46.512;6.626;2023-05-20T05:01:24;96686.56;;;16.62;54.22
60228;BME280;46091;46.512;6.626;2023-05-20T05:03:27;96681.00;;;16.63;54.03
60228;BME280;46091;46.512;6.626;2023-05-20T05:05:30;96677.53;;;16.63;54.14
60228;BME280;46091;46.512;6.626;2023-05-20T05:07:33;96685.53;;;16.63;54.06
60228;BME280;46091;46.512;6.626;2023-05-20T05:09:36;96674.84;;;16.63;54.31
60228;BME280;46091;46.512;6.626;2023-05-20T05:11:39;96665.47;;;16.60;54.17
60228;BME280;46091;46.512;6.626;2023-05-20T05:13:43;96663.38;;;16.62;54.23
60228;BME280;46091;46.512;6.626;2023-05-20T05:15:46;96677.88;;;16.66;54.20
60228;BME280;46091;46.512;6.626;2023-05-20T05:17:49;96671.50;;;16.67;54.26
60228;BME280;46091;46.512;6.626;2023-05-20T05:19:52;96668.38;;;16.70;54.13
60228;BME280;46091;46.512;6.626;2023-05-20T05:21:55;96666.53;;;16.71;54.15
60228;BME280;46091;46.512;6.626;2023-05-20T05:23:58;96666.28;;;16.72;54.10
60228;BME280;46091;46.512;6.626;2023-05-20T05:26:01;96662.13;;;16.76;54.15
60228;BME280;46091;46.512;6.626;2023-05-20T05:28:04;96659.22;;;16.78;54.18
60228;BME280;46091;46.512;6.626;2023-05-20T05:30:09;96658.50;;;16.82;54.20
60228;BME280;46091;46.512;6.626;2023-05-20T05:32:12;96659.63;;;16.86;54.22
60228;BME280;46091;46.512;6.626;2023-05-20T05:34:15;96661.38;;;16.93;54.03
60228;BME280;46091;46.512;6.626;2023-05-20T05:36:18;96664.13;;;16.98;53.96
60228;BME280;46091;46.512;6.626;2023-05-20T05:38:21;96658.91;;;17.03;54.02
60228;BME280;46091;46.512;6.626;2023-05-20T05:40:24;96659.34;;;17.11;53.91
60228;BME280;46091;46.512;6.626;2023-05-20T05:42:26;96659.44;;;17.16;53.84
60228;BME280;46091;46.512;6.626;2023-05-20T05:44:30;96660.94;;;17.24;53.83
60228;BME280;46091;46.512;6.626;2023-05-20T05:46:34;96658.91;;;17.31;53.75
60228;BME280;46091;46.512;6.626;2023-05-20T05:48:37;96660.41;;;17.39;53.60
60228;BME280;46091;46.512;6.626;2023-05-20T05:50:43;96654.31;;;17.43;53.73
60228;BME280;46091;46.512;6.626;2023-05-20T05:52:47;96647.78;;;17.51;53.52
60228;BME280;46091;46.512;6.626;2023-05-20T05:54:50;96641.16;;;17.54;53.55
60228;BME280;46091;46.512;6.626;2023-05-20T05:56:53;96637.41;;;17.55;53.45
60228;BME280;46091;46.512;6.626;2023-05-20T05:58:57;96646.72;;;17.52;53.48
60228;BME280;46091;46.512;6.626;2023-05-20T06:00:59;96643.00;;;17.53;53.47
60228;BME280;46091;46.512;6.626;2023-05-20T06:03:04;96641.25;;;17.59;53.45
60228;BME280;46091;46.512;6.626;2023-05-20T06:05:08;96649.34;;;17.64;53.49
60228;BME280;46091;46.512;6.626;2023-05-20T06:07:11;96647.81;;;17.68;53.40
60228;BME280;46091;46.512;6.626;2023-05-20T06:09:14;96652.78;;;17.76;53.55
60228;BME280;46091;46.512;6.626;2023-05-20T06:11:16;96653.94;;;17.80;53.30
60228;BME280;46091;46.512;6.626;2023-05-20T06:13:19;96652.66;;;17.83;53.15
60228;BME280;46091;46.512;6.626;2023-05-20T06:15:22;96649.47;;;17.86;53.35
60228;BME280;46091;46.512;6.626;2023-05-20T06:17:25;96641.78;;;17.89;53.19
60228;BME280;46091;46.512;6.626;2023-05-20T06:19:29;96642.94;;;17.93;52.97
60228;BME280;46091;46.512;6.626;2023-05-20T06:21:32;96643.47;;;17.95;52.88
60228;BME280;46091;46.512;6.626;2023-05-20T06:23:35;96631.16;;;17.94;53.09
60228;BME280;46091;46.512;6.626;2023-05-20T06:25:38;96631.41;;;17.93;52.91
60228;BME280;46091;46.512;6.626;2023-05-20T06:27:41;96634.34;;;17.91;52.91
60228;BME280;46091;46.512;6.626;2023-05-20T06:29:44;96636.41;;;17.89;53.07
60228;BME280;46091;46.512;6.626;2023-05-20T06:31:47;96629.94;;;17.85;53.02
60228;BME280;46091;46.512;6.626;2023-05-20T06:33:50;96635.53;;;17.84;53.11
60228;BME280;46091;46.512;6.626;2023-05-20T06:35:55;96637.41;;;17.83;52.89
60228;BME280;46091;46.512;6.626;2023-05-20T06:37:58;96637.41;;;17.83;53.06
60228;BME280;46091;46.512;6.626;2023-05-20T06:40:02;96634.25;;;17.86;52.82
60228;BME280;46091;46.512;6.626;2023-05-20T06:42:05;96632.13;;;17.88;52.79
60228;BME280;46091;46.512;6.626;2023-05-20T06:44:08;96628.41;;;17.89;52.65
60228;BME280;46091;46.512;6.626;2023-05-20T06:46:10;96631.06;;;17.89;52.63
60228;BME280;46091;46.512;6.626;2023-05-20T06:48:13;96623.41;;;17.93;52.64
60228;BME280;46091;46.512;6.626;2023-05-20T06:50:16;96626.38;;;17.96;52.63
60228;BME280;46091;46.512;6.626;2023-05-20T06:52:20;96625.88;;;17.99;52.63
60228;BME280;46091;46.512;6.626;2023-05-20T06:54:23;96622.16;;;18.00;52.41
60228;BME280;46091;46.512;6.626;2023-05-20T06:56:26;96621.69;;;18.03;52.55
60228;BME280;46091;46.512;6.626;2023-05-20T06:58:31;96619.47;;;18.00;52.33
60228;BME280;46091;46.512;6.626;2023-05-20T07:00:34;96621.94;;;18.02;52.62
60228;BME280;46091;46.512;6.626;2023-05-20T07:02:37;96613.41;;;18.05;52.39
60228;BME280;46091;46.512;6.626;2023-05-20T07:04:40;96610.19;;;18.03;52.36
60228;BME280;46091;46.512;6.626;2023-05-20T07:06:43;96616.81;;;18.00;52.37
60228;BME280;46091;46.512;6.626;2023-05-20T07:08:47;96622.16;;;18.00;52.34
60228;BME280;46091;46.512;6.626;2023-05-20T07:10:50;96616.25;;;17.98;52.44
60228;BME280;46091;46.512;6.626;2023-05-20T07:12:53;96620.78;;;17.98;52.39
60228;BME280;46091;46.512;6.626;2023-05-20T07:14:56;96615.19;;;17.99;52.40
60228;BME280;46091;46.512;6.626;2023-05-20T07:16:59;96615.19;;;17.99;52.40
60228;BME280;46091;46.512;6.626;2023-05-20T07:19:02;96606.59;;;17.97;52.28
60228;BME280;46091;46.512;6.626;2023-05-20T07:21:05;96602.88;;;17.98;52.20
60228;BME280;46091;46.512;6.626;2023-05-20T07:23:08;96603.44;;;18.00;52.10
60228;BME280;46091;46.512;6.626;2023-05-20T07:25:12;96601.34;;;18.02;52.17
60228;BME280;46091;46.512;6.626;2023-05-20T07:27:15;96601.66;;;18.06;52.18
60228;BME280;46091;46.512;6.626;2023-05-20T07:29:18;96597.69;;;18.09;51.98
60228;BME280;46091;46.512;6.626;2023-05-20T07:31:21;96591.81;;;18.12;52.12
60228;BME280;46091;46.512;6.626;2023-05-20T07:33:24;96597.78;;;18.14;51.95
60228;BME280;46091;46.512;6.626;2023-05-20T07:35:28;96592.72;;;18.17;51.84
60228;BME280;46091;46.512;6.626;2023-05-20T07:37:31;96599.78;;;18.23;51.91
60228;BME280;46091;46.512;6.626;2023-05-20T07:39:34;96583.47;;;18.25;51.85
60228;BME280;46091;46.512;6.626;2023-05-20T07:41:38;96588.88;;;18.30;51.75
60228;BME280;46091;46.512;6.626;2023-05-20T07:43:41;96591.25;;;18.26;51.80
60228;BME280;46091;46.512;6.626;2023-05-20T07:45:44;96601.72;;;18.28;52.04
60228;BME280;46091;46.512;6.626;2023-05-20T07:47:47;96593.44;;;18.29;52.00
60228;BME280;46091;46.512;6.626;2023-05-20T07:49:50;96602.81;;;18.32;51.84
60228;BME280;46091;46.512;6.626;2023-05-20T07:51:53;96593.19;;;18.31;51.87
60228;BME280;46091;46.512;6.626;2023-05-20T07:53:56;96592.47;;;18.36;51.60
60228;BME280;46091;46.512;6.626;2023-05-20T07:55:59;96586.31;;;18.35;51.68
60228;BME280;46091;46.512;6.626;2023-05-20T07:58:05;96594.31;;;18.35;51.62
60228;BME280;46091;46.512;6.626;2023-05-20T08:00:09;96591.16;;;18.38;51.72
60228;BME280;46091;46.512;6.626;2023-05-20T08:02:13;96594.38;;;18.40;51.59
60228;BME280;46091;46.512;6.626;2023-05-20T08:04:16;96586.34;;;18.40;51.59
60228;BME280;46091;46.512;6.626;2023-05-20T08:06:19;96586.09;;;18.42;51.55
60228;BME280;46091;46.512;6.626;2023-05-20T08:08:22;96584.47;;;18.41;51.62
60228;BME280;46091;46.512;6.626;2023-05-20T08:10:25;96585.03;;;18.43;51.56
60228;BME280;46091;46.512;6.626;2023-05-20T08:12:28;96586.09;;;18.42;51.73
60228;BME280;46091;46.512;6.626;2023-05-20T08:14:32;96586.34;;;18.40;51.42
60228;BME280;46091;46.512;6.626;2023-05-20T08:16:35;96586.09;;;18.42;51.39
60228;BME280;46091;46.512;6.626;2023-05-20T08:18:38;96584.22;;;18.42;51.40
60228;BME280;46091;46.512;6.626;2023-05-20T08:20:41;96578.06;;;18.42;51.48
60228;BME280;46091;46.512;6.626;2023-05-20T08:22:44;96573.47;;;18.37;51.46
60228;BME280;46091;46.512;6.626;2023-05-20T08:24:47;96572.91;;;18.35;51.23
60228;BME280;46091;46.512;6.626;2023-05-20T08:26:50;96582.56;;;18.36;51.51
60228;BME280;46091;46.512;6.626;2023-05-20T08:28:53;96580.94;;;18.35;51.58
60228;BME280;46091;46.512;6.626;2023-05-20T08:31:00;96577.44;;;18.34;51.57
60228;BME280;46091;46.512;6.626;2023-05-20T08:33:03;96573.13;;;18.33;51.47
60228;BME280;46091;46.512;6.626;2023-05-20T08:35:06;96565.38;;;18.32;51.35
60228;BME280;46091;46.512;6.626;2023-05-20T08:37:09;96566.41;;;18.31;51.39
60228;BME280;46091;46.512;6.626;2023-05-20T08:39:13;96562.13;;;18.30;51.33
60228;BME280;46091;46.512;6.626;2023-05-20T08:41:17;96561.31;;;18.29;51.41
60228;BME280;46091;46.512;6.626;2023-05-20T08:43:20;96564.31;;;18.33;51.46
60228;BME280;46091;46.512;6.626;2023-05-20T08:45:24;96563.25;;;18.34;51.38
60228;BME280;46091;46.512;6.626;2023-05-20T08:47:30;96565.44;;;18.37;51.34
60228;BME280;46091;46.512;6.626;2023-05-20T08:49:33;96566.00;;;18.39;51.07
60228;BME280;46091;46.512;6.626;2023-05-20T08:51:36;96559.03;;;18.38;51.35
60228;BME280;46091;46.512;6.626;2023-05-20T08:53:40;96560.34;;;18.36;51.40
60228;BME280;46091;46.512;6.626;2023-05-20T08:55:46;96567.56;;;18.35;51.15
60228;BME280;46091;46.512;6.626;2023-05-20T08:57:50;96571.28;;;18.34;51.44
60228;BME280;46091;46.512;6.626;2023-05-20T08:59:55;96579.31;;;18.34;51.28
60228;BME280;46091;46.512;6.626;2023-05-20T09:01:58;96568.03;;;18.32;51.35
60228;BME280;46091;46.512;6.626;2023-05-20T09:04:02;96574.41;;;18.26;51.29
60228;BME280;46091;46.512;6.626;2023-05-20T09:06:06;96570.25;;;18.18;51.21
60228;BME280;46091;46.512;6.626;2023-05-20T09:08:10;96568.41;;;18.19;51.21
60228;BME280;46091;46.512;6.626;2023-05-20T09:10:13;96563.13;;;18.24;51.29
60228;BME280;46091;46.512;6.626;2023-05-20T09:12:16;96564.81;;;18.30;51.14
60228;BME280;46091;46.512;6.626;2023-05-20T09:14:20;96566.97;;;18.33;51.16
60228;BME280;46091;46.512;6.626;2023-05-20T09:16:24;96566.97;;;18.33;51.28
60228;BME280;46091;46.512;6.626;2023-05-20T09:18:27;96568.94;;;18.38;51.08
60228;BME280;46091;46.512;6.626;2023-05-20T09:20:33;96563.88;;;18.41;51.04
60228;BME280;46091;46.512;6.626;2023-05-20T09:22:38;96552.66;;;18.44;51.14
60228;BME280;46091;46.512;6.626;2023-05-20T09:24:41;96553.47;;;18.45;51.21
60228;BME280;46091;46.512;6.626;2023-05-20T09:26:44;96554.28;;;18.45;51.25
60228;BME280;46091;46.512;6.626;2023-05-20T09:28:47;96558.59;;;18.46;51.19
60228;BME280;46091;46.512;6.626;2023-05-20T09:30:50;96557.56;;;18.47;51.08
60228;BME280;46091;46.512;6.626;2023-05-20T09:32:53;96551.69;;;18.50;51.17
60228;BME280;46091;46.512;6.626;2023-05-20T09:34:57;96551.75;;;18.55;50.95
60228;BME280;46091;46.512;6.626;2023-05-20T09:37:06;96562.53;;;18.60;50.97
60228;BME280;46091;46.512;6.626;2023-05-20T09:39:13;96550.50;;;18.63;50.80
60228;BME280;46091;46.512;6.626;2023-05-20T09:41:19;96547.59;;;18.65;51.04
60228;BME280;46091;46.512;6.626;2023-05-20T09:43:22;96545.22;;;18.68;51.10
60228;BME280;46091;46.512;6.626;2023-05-20T09:45:25;96545.81;;;18.70;51.05
60228;BME280;46091;46.512;6.626;2023-05-20T09:47:28;96539.66;;;18.70;51.02
60228;BME280;46091;46.512;6.626;2023-05-20T09:49:31;96544.50;;;18.73;50.89
60228;BME280;46091;46.512;6.626;2023-05-20T09:51:34;96547.16;;;18.73;50.87
60228;BME280;46091;46.512;6.626;2023-05-20T09:53:39;96552.00;;;18.76;51.01
60228;BME280;46091;46.512;6.626;2023-05-20T09:55:44;96547.22;;;18.78;50.98
60228;BME280;46091;46.512;6.626;2023-05-20T09:57:47;96542.19;;;18.81;50.75
60228;BME280;46091;46.512;6.626;2023-05-20T09:59:50;96553.44;;;18.83;50.65
60228;BME280;46091;46.512;6.626;2023-05-20T10:01:54;96547.03;;;18.84;50.81
60228;BME280;46091;46.512;6.626;2023-05-20T10:03:58;96557.22;;;18.87;50.86
60228;BME280;46091;46.512;6.626;2023-05-20T10:06:21;96560.22;;;18.91;50.68
60228;BME280;46091;46.512;6.626;2023-05-20T10:08:41;96559.66;;;18.89;50.57
60228;BME280;46091;46.512;6.626;2023-05-20T10:10:54;96558.66;;;18.95;50.71
60228;BME280;46091;46.512;6.626;2023-05-20T10:13:07;96558.72;;;19.00;50.65
60228;BME280;46091;46.512;6.626;2023-05-20T10:15:17;96556.56;;;19.02;50.42
60228;BME280;46091;46.512;6.626;2023-05-20T10:17:28;96558.44;;;19.02;50.27
60228;BME280;46091;46.512;6.626;2023-05-20T10:19:37;96554.97;;;19.01;50.52
60228;BME280;46091;46.512;6.626;2023-05-20T10:21:40;96547.72;;;19.02;50.65
60228;BME280;46091;46.512;6.626;2023-05-20T10:23:44;96551.81;;;19.04;50.56
60228;BME280;46091;46.512;6.626;2023-05-20T10:25:51;96551.28;;;19.07;50.66
60228;BME280;46091;46.512;6.626;2023-05-20T10:28:06;96548.91;;;19.11;50.27
60228;BME280;46091;46.512;6.626;2023-05-20T10:30:17;96544.69;;;19.15;50.31
60228;BME280;46091;46.512;6.626;2023-05-20T10:32:25;96542.53;;;19.17;50.50
60228;BME280;46091;46.512;6.626;2023-05-20T10:34:28;96545.22;;;19.17;50.35
60228;BME280;46091;46.512;6.626;2023-05-20T10:36:55;96543.63;;;19.16;50.30
60228;BME280;46091;46.512;6.626;2023-05-20T10:39:00;96549.78;;;19.16;50.43
60228;BME280;46091;46.512;6.626;2023-05-20T10:41:09;96550.31;;;19.18;50.33
60228;BME280;46091;46.512;6.626;2023-05-20T10:43:14;96546.31;;;19.21;50.21
60228;BME280;46091;46.512;6.626;2023-05-20T10:45:26;96549.00;;;19.21;50.13
60228;BME280;46091;46.512;6.626;2023-05-20T10:47:29;96550.06;;;19.20;50.29
60228;BME280;46091;46.512;6.626;2023-05-20T10:49:33;96543.91;;;19.19;50.35
60228;BME280;46091;46.512;6.626;2023-05-20T10:51:36;96539.09;;;19.22;50.12
60228;BME280;46091;46.512;6.626;2023-05-20T10:53:40;96537.78;;;19.24;50.16
60228;BME280;46091;46.512;6.626;2023-05-20T10:55:50;96543.38;;;19.23;50.22